createdAt,value
2024-02-07T00:01:53.775Z,5.57
2024-02-07T00:03:56.750Z,7.27
2024-02-07T00:06:00.105Z,7.27
2024-02-07T00:08:03.149Z,7.00
2024-02-07T00:10:07.908Z,6.97
2024-02-07T00:12:10.747Z,8.90
2024-02-07T00:14:14.209Z,6.13
2024-02-07T00:16:17.061Z,6.97
2024-02-07T00:18:21.507Z,9.70
2024-02-07T00:20:24.504Z,8.27
2024-02-07T00:22:26.332Z,8.63
2024-02-07T00:24:29.362Z,9.20
2024-02-07T00:26:31.085Z,8.43
2024-02-07T00:28:33.869Z,9.03
2024-02-07T00:30:40.291Z,12.60
2024-02-07T00:32:43.714Z,8.97
2024-02-07T00:34:49.780Z,8.43
2024-02-07T00:36:52.528Z,7.63
2024-02-07T00:38:55.402Z,5.23
2024-02-07T00:40:58.486Z,9.20
2024-02-07T00:43:01.558Z,6.63
2024-02-07T00:45:05.259Z,5.83
2024-02-07T00:47:08.584Z,9.77
2024-02-07T00:49:14.469Z,5.23
2024-02-07T00:51:19.331Z,5.70
2024-02-07T00:53:22.036Z,11.03
2024-02-07T00:55:26.715Z,7.83
2024-02-07T00:57:30.037Z,6.50
2024-02-07T00:59:32.921Z,6.17
2024-02-07T01:01:36.062Z,8.93
2024-02-07T01:03:39.596Z,11.57
2024-02-07T01:05:42.521Z,6.83
2024-02-07T01:07:46.755Z,6.17
2024-02-07T01:09:50.139Z,7.37
2024-02-07T01:11:54.620Z,5.33
2024-02-07T01:13:59.249Z,5.07
2024-02-07T01:16:02.349Z,3.80
2024-02-07T01:18:05.847Z,4.03
2024-02-07T01:20:12.000Z,5.00
2024-02-07T01:22:15.187Z,3.93
2024-02-07T01:24:20.634Z,1.53
2024-02-07T01:26:23.369Z,2.53
2024-02-07T01:28:26.577Z,1.47
2024-02-07T01:30:28.995Z,2.87
2024-02-07T01:32:31.812Z,1.27
2024-02-07T01:34:37.702Z,1.00
2024-02-07T01:36:46.570Z,2.90
2024-02-07T01:38:48.704Z,2.20
2024-02-07T01:40:54.052Z,1.17
2024-02-07T01:42:57.652Z,1.00
2024-02-07T01:45:25.315Z,2.20
2024-02-07T01:47:28.210Z,1.20
2024-02-07T01:49:30.209Z,1.03
2024-02-07T01:51:34.168Z,0.80
2024-02-07T01:53:39.732Z,1.10
2024-02-07T01:55:47.410Z,2.20
2024-02-07T01:57:50.875Z,0.80
2024-02-07T01:59:53.696Z,2.27
2024-02-07T02:01:56.828Z,1.37
2024-02-07T02:04:00.249Z,9.00
2024-02-07T02:06:03.091Z,1.73
2024-02-07T02:08:06.614Z,1.87
2024-02-07T02:10:14.306Z,3.07
2024-02-07T02:12:17.869Z,2.57
2024-02-07T02:14:23.311Z,1.20
2024-02-07T02:16:26.144Z,2.13
2024-02-07T02:18:31.692Z,1.30
2024-02-07T02:20:34.803Z,1.13
2024-02-07T02:22:52.029Z,1.83
2024-02-07T02:25:18.583Z,1.13
2024-02-07T02:27:37.153Z,1.20
2024-02-07T02:29:46.567Z,3.30
2024-02-07T02:31:53.347Z,2.03
2024-02-07T02:33:58.449Z,4.87
2024-02-07T02:36:02.175Z,1.83
2024-02-07T02:38:06.219Z,2.30
2024-02-07T02:40:10.411Z,2.00
2024-02-07T02:42:13.737Z,8.03
2024-02-07T02:44:17.936Z,2.70
2024-02-07T02:46:21.883Z,3.33
2024-02-07T02:48:25.079Z,3.63
2024-02-07T02:50:29.786Z,1.87
2024-02-07T02:52:32.785Z,2.30
2024-02-07T02:54:37.905Z,5.97
2024-02-07T02:56:41.286Z,4.27
2024-02-07T02:58:44.926Z,1.47
2024-02-07T03:00:51.589Z,1.40
2024-02-07T03:02:57.798Z,2.00
2024-02-07T03:05:04.044Z,1.50
2024-02-07T03:07:26.958Z,1.20
2024-02-07T03:09:32.006Z,1.20
2024-02-07T03:11:35.165Z,0.50
2024-02-07T03:13:40.902Z,0.73
2024-02-07T03:15:44.844Z,1.53
2024-02-07T03:17:48.014Z,1.40
2024-02-07T03:19:52.412Z,0.70
2024-02-07T03:21:56.794Z,2.27
2024-02-07T03:23:59.449Z,1.50
2024-02-07T03:26:03.144Z,1.70
2024-02-07T03:28:06.574Z,1.07
2024-02-07T03:30:10.276Z,1.87
2024-02-07T03:32:13.944Z,2.47
2024-02-07T03:34:17.220Z,3.33
2024-02-07T03:36:23.579Z,1.37
2024-02-07T03:38:26.422Z,2.73
2024-02-07T03:40:29.479Z,1.57
2024-02-07T03:42:32.176Z,1.25
2024-02-07T03:44:34.875Z,2.72
2024-02-07T03:46:38.570Z,1.35
2024-02-07T03:48:41.791Z,2.25
2024-02-07T03:50:44.764Z,1.38
2024-02-07T03:52:50.097Z,2.78
2024-02-07T03:54:52.799Z,1.83
2024-02-07T03:56:56.123Z,3.30
2024-02-07T03:58:59.720Z,1.23
2024-02-07T04:01:02.816Z,1.55
2024-02-07T04:03:06.671Z,1.42
2024-02-07T04:05:09.651Z,1.58
2024-02-07T04:07:13.008Z,2.67
2024-02-07T04:09:19.691Z,0.93
2024-02-07T04:11:21.452Z,2.92
2024-02-07T04:13:23.289Z,3.33
2024-02-07T04:15:44.041Z,2.65
2024-02-07T04:18:12.638Z,5.65
2024-02-07T04:20:33.149Z,3.90
2024-02-07T04:22:53.250Z,3.80
2024-02-07T04:25:14.934Z,2.85
2024-02-07T04:27:34.981Z,2.33
2024-02-07T04:29:55.301Z,2.10
2024-02-07T04:32:15.847Z,2.92
2024-02-07T04:34:36.181Z,4.57
2024-02-07T04:36:56.686Z,2.47
2024-02-07T04:39:17.202Z,2.60
2024-02-07T04:41:38.829Z,5.72
2024-02-07T04:43:59.310Z,2.83
2024-02-07T04:46:19.752Z,3.25
2024-02-07T04:48:40.148Z,5.70
2024-02-07T04:51:00.635Z,1.92
2024-02-07T04:53:23.534Z,3.15
2024-02-07T04:55:44.045Z,2.72
2024-02-07T04:58:05.906Z,3.70
2024-02-07T05:00:27.231Z,2.58
2024-02-07T05:02:47.377Z,3.75
2024-02-07T05:05:07.890Z,3.38
2024-02-07T05:07:28.569Z,4.85
2024-02-07T05:09:48.933Z,4.15
2024-02-07T05:12:09.212Z,2.78
2024-02-07T05:14:30.659Z,3.65
2024-02-07T05:16:33.659Z,3.58
2024-02-07T05:18:37.322Z,1.95
2024-02-07T05:20:40.528Z,3.05
2024-02-07T05:22:43.751Z,3.67
2024-02-07T05:24:48.304Z,4.30
2024-02-07T05:26:51.225Z,2.20
2024-02-07T05:28:54.835Z,4.15
2024-02-07T05:30:59.285Z,3.70
2024-02-07T05:33:01.287Z,2.22
2024-02-07T05:35:04.320Z,3.00
2024-02-07T05:37:07.190Z,3.42
2024-02-07T05:39:10.395Z,5.28
2024-02-07T05:41:13.415Z,3.42
2024-02-07T05:43:16.541Z,2.10
2024-02-07T05:45:19.589Z,5.10
2024-02-07T05:47:23.666Z,2.90
2024-02-07T05:49:26.714Z,3.35
2024-02-07T05:51:30.093Z,4.40
2024-02-07T05:53:32.937Z,4.63
2024-02-07T05:55:37.796Z,7.95
2024-02-07T05:57:39.818Z,6.80
2024-02-07T05:59:42.801Z,3.83
2024-02-07T06:01:45.826Z,3.38
2024-02-07T06:03:54.279Z,4.15
2024-02-07T06:05:59.415Z,5.45
2024-02-07T06:08:02.430Z,3.95
2024-02-07T06:10:05.806Z,5.20
2024-02-07T06:12:12.353Z,5.72
2024-02-07T06:14:16.677Z,6.97
2024-02-07T06:16:21.373Z,5.47
2024-02-07T06:18:24.657Z,3.85
2024-02-07T06:20:30.350Z,2.60
2024-02-07T06:22:34.239Z,7.90
2024-02-07T06:24:37.477Z,5.45
2024-02-07T06:26:40.297Z,7.47
2024-02-07T06:28:43.224Z,6.60
2024-02-07T06:30:46.223Z,2.80
2024-02-07T06:32:49.166Z,6.22
2024-02-07T06:34:52.460Z,5.30
2024-02-07T06:36:55.835Z,4.43
2024-02-07T06:38:58.896Z,5.45
2024-02-07T06:41:00.968Z,9.20
2024-02-07T06:43:05.391Z,7.55
2024-02-07T06:45:09.811Z,5.13
2024-02-07T06:47:14.176Z,4.97
2024-02-07T06:49:17.119Z,4.77
2024-02-07T06:51:20.465Z,4.90
2024-02-07T06:53:25.098Z,9.02
2024-02-07T06:55:28.314Z,11.25
2024-02-07T06:57:31.073Z,9.23
2024-02-07T06:59:33.877Z,9.68
2024-02-07T07:01:36.641Z,6.22
2024-02-07T07:03:39.429Z,3.70
2024-02-07T07:05:42.331Z,10.38
2024-02-07T07:07:45.290Z,4.00
2024-02-07T07:09:49.321Z,5.72
2024-02-07T07:11:52.163Z,8.77
2024-02-07T07:13:56.927Z,3.78
2024-02-07T07:16:01.305Z,8.20
2024-02-07T07:18:04.344Z,7.83
2024-02-07T07:20:07.576Z,6.60
2024-02-07T07:22:12.126Z,5.63
2024-02-07T07:24:15.480Z,8.07
2024-02-07T07:26:19.668Z,8.45
2024-02-07T07:28:22.656Z,5.17
2024-02-07T07:30:25.504Z,10.48
2024-02-07T07:32:28.302Z,6.82
2024-02-07T07:34:31.238Z,7.07
2024-02-07T07:36:34.155Z,3.40
2024-02-07T07:38:36.797Z,6.13
2024-02-07T07:40:40.679Z,7.60
2024-02-07T07:42:45.250Z,8.23
2024-02-07T07:44:47.908Z,9.77
2024-02-07T07:46:50.687Z,5.57
2024-02-07T07:48:53.779Z,6.40
2024-02-07T07:50:56.588Z,5.97
2024-02-07T07:52:59.697Z,6.93
2024-02-07T07:55:02.510Z,8.77
2024-02-07T07:57:05.814Z,6.07
2024-02-07T07:59:10.739Z,3.53
2024-02-07T08:01:14.335Z,5.87
2024-02-07T08:03:17.040Z,8.03
2024-02-07T08:05:20.017Z,7.50
2024-02-07T08:07:23.035Z,14.50
2024-02-07T08:09:25.830Z,11.97
2024-02-07T08:11:28.534Z,16.77
2024-02-07T08:13:31.254Z,10.13
2024-02-07T08:15:35.355Z,12.80
2024-02-07T08:17:38.095Z,7.13
2024-02-07T08:19:41.292Z,11.43
2024-02-07T08:21:44.039Z,7.33
2024-02-07T08:23:47.398Z,8.03
2024-02-07T08:25:49.280Z,10.07
2024-02-07T08:27:52.311Z,8.87
2024-02-07T08:29:55.055Z,10.93
2024-02-07T08:32:01.607Z,11.07
2024-02-07T08:34:04.867Z,7.17
2024-02-07T08:36:09.018Z,10.37
2024-02-07T08:38:11.911Z,8.77
2024-02-07T08:40:15.307Z,7.35
2024-02-07T08:42:18.156Z,10.53
2024-02-07T08:44:20.827Z,14.37
2024-02-07T08:46:24.233Z,6.53
2024-02-07T08:48:29.325Z,14.18
2024-02-07T08:50:32.252Z,6.43
2024-02-07T08:52:34.013Z,10.33
2024-02-07T08:54:36.699Z,15.73
2024-02-07T08:56:39.413Z,5.87
2024-02-07T08:58:42.067Z,7.73
2024-02-07T09:00:45.131Z,6.60
2024-02-07T09:02:51.186Z,13.53
2024-02-07T09:04:55.759Z,10.63
2024-02-07T09:06:58.508Z,9.73
2024-02-07T09:09:01.228Z,5.57
2024-02-07T09:11:02.991Z,8.93
2024-02-07T09:13:05.953Z,10.63
2024-02-07T09:15:09.547Z,10.30
2024-02-07T09:17:12.337Z,11.33
2024-02-07T09:19:16.032Z,12.80
2024-02-07T09:21:20.272Z,11.70
2024-02-07T09:23:22.945Z,12.57
2024-02-07T09:25:26.832Z,11.80
2024-02-07T09:27:31.102Z,6.43
2024-02-07T09:29:34.350Z,9.77
2024-02-07T09:31:37.028Z,9.77
2024-02-07T09:33:40.795Z,8.53
2024-02-07T09:35:43.810Z,6.00
2024-02-07T09:37:48.560Z,6.77
2024-02-07T09:39:51.307Z,8.60
2024-02-07T09:41:55.165Z,10.33
2024-02-07T09:43:59.179Z,6.93
2024-02-07T09:46:01.554Z,9.97
2024-02-07T09:48:14.250Z,9.10
2024-02-07T09:50:18.496Z,6.27
2024-02-07T09:52:21.798Z,5.83
2024-02-07T09:54:25.123Z,8.63
2024-02-07T09:56:28.197Z,9.13
2024-02-07T09:58:31.778Z,9.50
2024-02-07T10:00:34.555Z,11.57
2024-02-07T10:02:38.702Z,7.00
2024-02-07T10:04:48.076Z,13.00
2024-02-07T10:06:51.440Z,14.23
2024-02-07T10:08:54.314Z,18.37
2024-02-07T10:10:59.132Z,13.87
2024-02-07T10:13:02.022Z,16.53
2024-02-07T10:15:05.313Z,14.63
2024-02-07T10:17:08.183Z,8.60
2024-02-07T10:19:10.998Z,11.40
2024-02-07T10:21:13.813Z,7.63
2024-02-07T10:23:16.484Z,10.60
2024-02-07T10:25:19.381Z,8.43
2024-02-07T10:27:23.984Z,6.70
2024-02-07T10:29:26.543Z,10.07
2024-02-07T10:31:29.985Z,14.23
2024-02-07T10:33:41.517Z,10.80
2024-02-07T10:35:44.587Z,13.50
2024-02-07T10:37:47.854Z,11.43
2024-02-07T10:39:50.918Z,15.53
2024-02-07T10:41:53.656Z,15.83
2024-02-07T10:44:06.944Z,19.87
2024-02-07T10:46:14.321Z,13.80
2024-02-07T10:48:17.353Z,14.10
2024-02-07T10:50:22.135Z,15.97
2024-02-07T10:52:25.353Z,11.10
2024-02-07T10:54:27.340Z,9.37
2024-02-07T10:56:30.089Z,11.73
2024-02-07T10:58:33.747Z,9.07
2024-02-07T11:00:38.115Z,13.50
2024-02-07T11:02:41.138Z,9.37
2024-02-07T11:04:45.765Z,10.97
2024-02-07T11:06:50.323Z,15.97
2024-02-07T11:08:53.614Z,5.17
2024-02-07T11:10:58.195Z,9.17
2024-02-07T11:13:01.935Z,11.93
2024-02-07T11:15:04.967Z,17.17
2024-02-07T11:17:10.489Z,10.87
2024-02-07T11:19:13.314Z,9.87
2024-02-07T11:21:19.323Z,11.03
2024-02-07T11:23:24.966Z,15.07
2024-02-07T11:25:28.070Z,13.67
2024-02-07T11:27:31.089Z,10.23
2024-02-07T11:29:35.843Z,9.57
2024-02-07T11:31:38.623Z,6.50
2024-02-07T11:33:44.634Z,9.10
2024-02-07T11:35:47.522Z,10.97
2024-02-07T11:37:50.915Z,8.37
2024-02-07T11:39:53.664Z,10.87
2024-02-07T11:41:57.704Z,12.77
2024-02-07T11:44:06.278Z,8.20
2024-02-07T11:46:09.257Z,13.53
2024-02-07T11:48:19.518Z,6.83
2024-02-07T11:50:24.058Z,10.90
2024-02-07T11:52:28.653Z,8.43
2024-02-07T11:54:32.650Z,7.27
2024-02-07T11:56:35.549Z,8.80
2024-02-07T11:58:38.745Z,8.23
2024-02-07T12:00:42.681Z,10.80
2024-02-07T12:02:48.610Z,10.93
2024-02-07T12:04:51.369Z,9.23
2024-02-07T12:06:56.529Z,8.87
2024-02-07T12:08:59.284Z,8.10
2024-02-07T12:11:02.319Z,10.50
2024-02-07T12:13:05.447Z,12.67
2024-02-07T12:15:09.801Z,8.80
2024-02-07T12:17:12.558Z,11.73
2024-02-07T12:19:16.777Z,8.93
2024-02-07T12:21:22.578Z,12.00
2024-02-07T12:23:29.691Z,7.87
2024-02-07T12:25:32.661Z,9.60
2024-02-07T12:27:35.821Z,7.17
2024-02-07T12:29:37.501Z,12.10
2024-02-07T12:31:40.231Z,7.30
2024-02-07T12:33:43.110Z,12.80
2024-02-07T12:35:52.524Z,9.77
2024-02-07T12:37:59.605Z,9.80
2024-02-07T12:40:04.774Z,8.90
2024-02-07T12:42:08.624Z,16.23
2024-02-07T12:44:13.792Z,9.07
2024-02-07T12:46:18.413Z,8.50
2024-02-07T12:48:21.167Z,10.63
2024-02-07T12:50:24.884Z,13.00
2024-02-07T12:52:27.879Z,14.00
2024-02-07T12:54:31.549Z,4.83
2024-02-07T12:56:35.611Z,10.60
2024-02-07T12:58:43.309Z,10.47
2024-02-07T13:00:46.561Z,11.50
2024-02-07T13:02:49.834Z,7.70
2024-02-07T13:04:51.740Z,9.63
2024-02-07T13:06:54.518Z,4.23
2024-02-07T13:08:57.228Z,7.13
2024-02-07T13:11:00.257Z,10.53
2024-02-07T13:13:05.232Z,8.23
2024-02-07T13:15:07.507Z,8.87
2024-02-07T13:17:11.251Z,6.53
2024-02-07T13:19:15.582Z,7.93
2024-02-07T13:21:18.598Z,6.03
2024-02-07T13:23:23.144Z,11.20
2024-02-07T13:25:26.648Z,8.80
2024-02-07T13:27:29.714Z,9.27
2024-02-07T13:29:34.725Z,8.73
2024-02-07T13:31:37.633Z,6.73
2024-02-07T13:33:41.268Z,6.00
2024-02-07T13:35:44.194Z,5.63
2024-02-07T13:37:47.145Z,5.30
2024-02-07T13:39:50.272Z,6.37
2024-02-07T13:41:53.433Z,9.33
2024-02-07T13:43:57.650Z,8.47
2024-02-07T13:46:01.861Z,5.30
2024-02-07T13:48:05.504Z,4.97
2024-02-07T13:50:10.183Z,11.33
2024-02-07T13:52:13.289Z,4.87
2024-02-07T13:54:16.298Z,7.07
2024-02-07T13:56:18.178Z,5.13
2024-02-07T13:58:21.039Z,8.37
2024-02-07T14:00:23.876Z,3.33
2024-02-07T14:02:28.044Z,6.30
2024-02-07T14:04:30.709Z,5.63
2024-02-07T14:06:32.862Z,10.07
2024-02-07T14:08:36.052Z,5.03
2024-02-07T14:10:39.111Z,4.73
2024-02-07T14:12:41.998Z,7.93
2024-02-07T14:14:44.602Z,7.10
2024-02-07T14:16:47.540Z,7.37
2024-02-07T14:18:52.383Z,6.97
2024-02-07T14:20:55.125Z,8.57
2024-02-07T14:22:57.891Z,8.70
2024-02-07T14:25:00.868Z,7.00
2024-02-07T14:27:03.901Z,4.37
2024-02-07T14:29:06.824Z,7.23
2024-02-07T14:31:10.257Z,5.33
2024-02-07T14:33:13.823Z,4.90
2024-02-07T14:35:20.654Z,7.33
2024-02-07T14:37:23.592Z,4.00
2024-02-07T14:39:29.646Z,3.87
2024-02-07T14:41:32.410Z,9.47
2024-02-07T14:43:34.241Z,6.30
2024-02-07T14:45:37.024Z,8.07
2024-02-07T14:47:40.090Z,4.83
2024-02-07T14:49:43.388Z,3.13
2024-02-07T14:51:47.943Z,3.77
2024-02-07T14:53:50.859Z,3.23
2024-02-07T14:55:59.682Z,5.87
2024-02-07T14:58:02.816Z,4.30
2024-02-07T15:00:06.735Z,5.37
2024-02-07T15:02:13.151Z,5.60
2024-02-07T15:04:15.360Z,5.47
2024-02-07T15:08:26.951Z,4.60
2024-02-07T15:10:30.268Z,7.43
2024-02-07T15:12:34.156Z,4.90
2024-02-07T15:14:37.375Z,7.40
2024-02-07T15:16:40.591Z,8.63
2024-02-07T15:18:44.162Z,7.60
2024-02-07T15:20:47.824Z,5.90
2024-02-07T15:22:51.018Z,7.87
2024-02-07T15:24:55.830Z,6.50
2024-02-07T15:26:59.228Z,4.73
2024-02-07T15:29:02.785Z,10.13
2024-02-07T15:31:06.190Z,3.43
2024-02-07T15:33:09.540Z,7.60
2024-02-07T15:35:14.594Z,5.87
2024-02-07T15:37:18.353Z,3.97
2024-02-07T15:39:21.595Z,5.27
2024-02-07T15:41:26.448Z,6.87
2024-02-07T15:43:29.785Z,6.83
2024-02-07T15:45:33.252Z,8.67
2024-02-07T15:47:36.808Z,7.20
2024-02-07T15:49:40.140Z,6.47
2024-02-07T15:51:43.760Z,4.87
2024-02-07T15:53:46.795Z,6.20
2024-02-07T15:55:49.950Z,8.60
2024-02-07T15:57:54.312Z,4.27
2024-02-07T15:59:59.664Z,3.87
2024-02-07T16:02:03.282Z,6.60
2024-02-07T16:04:06.456Z,4.70
2024-02-07T16:06:09.561Z,4.90
2024-02-07T16:08:12.796Z,5.33
2024-02-07T16:10:17.274Z,9.33
2024-02-07T16:12:20.670Z,6.70
2024-02-07T16:14:25.032Z,8.27
2024-02-07T16:16:27.973Z,7.30
2024-02-07T16:18:33.726Z,7.53
2024-02-07T16:20:37.061Z,8.30
2024-02-07T16:22:40.115Z,10.85
2024-02-07T16:24:44.153Z,5.80
2024-02-07T16:26:47.262Z,10.47
2024-02-07T16:28:50.288Z,5.55
2024-02-07T16:30:54.701Z,9.80
2024-02-07T16:32:58.056Z,6.37
2024-02-07T16:37:30.792Z,6.53
2024-02-07T16:39:34.172Z,5.83
2024-02-07T16:41:37.640Z,9.17
2024-02-07T16:43:42.722Z,7.28
2024-02-07T16:45:46.157Z,8.43
2024-02-07T16:47:50.656Z,6.80
2024-02-07T16:49:54.182Z,7.93
2024-02-07T16:52:00.358Z,6.78
2024-02-07T16:54:03.836Z,5.77
2024-02-07T16:56:05.916Z,11.47
2024-02-07T16:58:09.994Z,8.00
2024-02-07T17:00:13.664Z,12.77
2024-02-07T17:02:17.078Z,10.93
2024-02-07T17:04:21.893Z,8.10
2024-02-07T17:06:25.234Z,5.63
2024-02-07T17:08:32.115Z,9.48
2024-02-07T17:10:35.294Z,8.83
2024-02-07T17:12:38.170Z,8.10
2024-02-07T17:14:42.144Z,4.00
2024-02-07T17:16:45.267Z,7.37
2024-02-07T17:18:48.253Z,8.47
2024-02-07T17:20:52.827Z,6.20
2024-02-07T17:22:57.716Z,8.93
2024-02-07T17:25:01.012Z,8.30
2024-02-07T17:27:04.354Z,6.33
2024-02-07T17:29:08.388Z,7.60
2024-02-07T17:31:12.852Z,4.73
2024-02-07T17:33:17.357Z,6.53
2024-02-07T17:35:21.925Z,7.07
2024-02-07T17:37:26.439Z,9.07
2024-02-07T17:39:29.562Z,6.77
2024-02-07T17:41:32.749Z,10.03
2024-02-07T17:43:36.125Z,11.80
2024-02-07T17:45:39.106Z,11.90
2024-02-07T17:47:42.267Z,9.33
2024-02-07T17:49:47.059Z,11.97
2024-02-07T17:51:48.973Z,14.37
2024-02-07T17:53:53.450Z,7.77
2024-02-07T17:55:56.770Z,10.80
2024-02-07T17:57:59.772Z,12.33
2024-02-07T18:00:02.601Z,6.57
2024-02-07T18:02:06.242Z,12.33
2024-02-07T18:04:09.148Z,8.17
2024-02-07T18:06:12.254Z,7.80
2024-02-07T18:08:15.319Z,8.97
2024-02-07T18:10:19.162Z,14.20
2024-02-07T18:12:21.940Z,18.00
2024-02-07T18:14:26.458Z,15.50
2024-02-07T18:16:30.473Z,11.13
2024-02-07T18:18:33.677Z,13.40
2024-02-07T18:20:36.994Z,10.20
2024-02-07T18:22:40.059Z,12.67
2024-02-07T18:24:43.423Z,16.35
2024-02-07T18:26:51.993Z,13.63
2024-02-07T18:28:56.106Z,9.20
2024-02-07T18:30:59.535Z,10.43
2024-02-07T18:33:04.834Z,10.07
2024-02-07T18:35:08.631Z,12.40
2024-02-07T18:37:10.705Z,20.15
2024-02-07T18:39:14.924Z,11.23
2024-02-07T18:41:21.073Z,10.45
2024-02-07T18:43:26.398Z,14.82
2024-02-07T18:45:31.555Z,10.18
2024-02-07T18:47:34.436Z,18.60
2024-02-07T18:49:37.509Z,10.77
2024-02-07T18:51:40.987Z,12.93
2024-02-07T18:53:45.051Z,15.75
2024-02-07T18:55:47.976Z,16.87
2024-02-07T18:57:56.557Z,26.88
2024-02-07T19:00:00.769Z,21.63
2024-02-07T19:02:03.727Z,14.00
2024-02-07T19:04:08.267Z,13.85
2024-02-07T19:06:11.421Z,20.27
2024-02-07T19:08:14.797Z,18.25
2024-02-07T19:10:17.966Z,30.05
2024-02-07T19:12:20.794Z,10.90
2024-02-07T19:14:24.670Z,25.25
2024-02-07T19:16:30.700Z,14.95
2024-02-07T19:18:33.953Z,12.55
2024-02-07T19:20:37.124Z,16.20
2024-02-07T19:22:41.321Z,16.33
2024-02-07T19:24:44.626Z,13.45
2024-02-07T19:26:49.457Z,22.17
2024-02-07T19:28:53.577Z,11.07
2024-02-07T19:30:56.492Z,10.70
2024-02-07T19:33:01.410Z,11.55
2024-02-07T19:35:05.599Z,7.30
2024-02-07T19:37:08.559Z,6.53
2024-02-07T19:39:10.506Z,10.02
2024-02-07T19:41:13.734Z,8.38
2024-02-07T19:43:16.649Z,12.60
2024-02-07T19:45:19.573Z,13.20
2024-02-07T19:47:21.760Z,9.43
2024-02-07T19:49:26.480Z,10.85
2024-02-07T19:51:29.494Z,12.18
2024-02-07T19:53:32.462Z,11.15
2024-02-07T19:55:35.582Z,11.57
2024-02-07T19:57:38.611Z,11.57
2024-02-07T19:59:41.830Z,10.63
2024-02-07T20:01:45.138Z,12.83
2024-02-07T20:03:48.240Z,17.17
2024-02-07T20:05:53.670Z,9.60
2024-02-07T20:07:57.830Z,16.48
2024-02-07T20:10:04.172Z,10.95
2024-02-07T20:12:08.289Z,13.38
2024-02-07T20:14:11.934Z,16.95
2024-02-07T20:16:15.068Z,11.57
2024-02-07T20:18:19.363Z,12.32
2024-02-07T20:20:22.422Z,8.95
2024-02-07T20:22:27.276Z,13.82
2024-02-07T20:24:30.273Z,17.63
2024-02-07T20:26:36.939Z,8.27
2024-02-07T20:28:41.782Z,7.32
2024-02-07T20:30:45.849Z,8.82
2024-02-07T20:32:48.727Z,9.68
2024-02-07T20:34:51.907Z,17.67
2024-02-07T20:36:55.626Z,7.00
2024-02-07T20:39:07.660Z,10.95
2024-02-07T20:41:13.420Z,9.52
2024-02-07T20:43:15.269Z,11.43
2024-02-07T20:45:19.147Z,14.80
2024-02-07T20:47:23.519Z,8.57
2024-02-07T20:49:26.647Z,5.70
2024-02-07T20:51:29.663Z,11.20
2024-02-07T20:53:32.504Z,11.52
2024-02-07T20:55:37.143Z,14.25
2024-02-07T20:57:39.580Z,12.70
2024-02-07T20:59:43.033Z,15.48
2024-02-07T21:01:46.222Z,14.88
2024-02-07T21:03:49.215Z,14.18
2024-02-07T21:05:55.508Z,15.45
2024-02-07T21:07:57.749Z,10.05
2024-02-07T21:10:00.722Z,8.60
2024-02-07T21:12:08.115Z,16.40
2024-02-07T21:14:11.328Z,14.10
2024-02-07T21:16:13.072Z,8.55
2024-02-07T21:18:17.206Z,9.13
2024-02-07T21:20:20.567Z,10.93
2024-02-07T21:22:23.506Z,9.07
2024-02-07T21:24:26.300Z,13.27
2024-02-07T21:26:29.480Z,7.70
2024-02-07T21:28:34.286Z,7.38
2024-02-07T21:30:37.337Z,10.85
2024-02-07T21:32:40.225Z,9.35
2024-02-07T21:34:43.027Z,10.02
2024-02-07T21:36:45.972Z,7.68
2024-02-07T21:38:49.395Z,9.63
2024-02-07T21:40:52.065Z,19.92
2024-02-07T21:42:54.931Z,8.43
2024-02-07T21:44:57.999Z,10.05
2024-02-07T21:47:01.922Z,14.43
2024-02-07T21:49:04.887Z,8.02
2024-02-07T21:51:09.187Z,12.90
2024-02-07T21:53:12.518Z,10.55
2024-02-07T21:55:15.712Z,10.85
2024-02-07T21:57:17.527Z,9.25
2024-02-07T21:59:20.264Z,7.00
2024-02-07T22:01:24.451Z,8.23
2024-02-07T22:03:27.256Z,7.90
2024-02-07T22:05:30.297Z,12.68
2024-02-07T22:07:33.523Z,13.13
2024-02-07T22:09:37.582Z,6.00
2024-02-07T22:11:40.496Z,11.93
2024-02-07T22:13:43.529Z,11.80
2024-02-07T22:15:46.218Z,7.47
2024-02-07T22:17:49.910Z,12.90
2024-02-07T22:19:53.449Z,10.60
2024-02-07T22:21:56.685Z,7.93
2024-02-07T22:23:59.715Z,7.10
2024-02-07T22:26:03.117Z,7.30
2024-02-07T22:28:07.363Z,8.95
2024-02-07T22:30:12.553Z,11.57
2024-02-07T22:32:15.346Z,12.60
2024-02-07T22:34:18.604Z,10.23
2024-02-07T22:36:21.389Z,8.48
2024-02-07T22:38:24.114Z,9.90
2024-02-07T22:40:26.014Z,9.90
2024-02-07T22:42:28.725Z,8.48
2024-02-07T22:44:30.449Z,9.98
2024-02-07T22:46:33.192Z,7.80
2024-02-07T22:48:36.304Z,6.93
2024-02-07T22:50:40.417Z,11.80
2024-02-07T22:52:43.177Z,8.45
2024-02-07T22:54:45.840Z,7.78
2024-02-07T22:56:50.284Z,6.82
2024-02-07T22:58:53.136Z,13.38
2024-02-07T23:00:56.174Z,5.38
2024-02-07T23:02:59.030Z,7.63
2024-02-07T23:05:02.284Z,6.22
2024-02-07T23:07:05.758Z,8.07
2024-02-07T23:09:09.510Z,12.90
2024-02-07T23:11:12.321Z,9.40
2024-02-07T23:13:15.137Z,11.60
2024-02-07T23:15:16.812Z,14.32
2024-02-07T23:17:19.556Z,9.02
2024-02-07T23:19:26.371Z,11.73
2024-02-07T23:21:29.197Z,9.35
2024-02-07T23:23:33.449Z,10.23
2024-02-07T23:25:36.230Z,12.18
2024-02-07T23:27:37.964Z,6.70
2024-02-07T23:29:40.630Z,9.88
2024-02-07T23:31:43.317Z,10.85
2024-02-07T23:33:46.937Z,7.18
2024-02-07T23:35:49.797Z,12.75
2024-02-07T23:37:52.186Z,11.80
2024-02-07T23:39:56.437Z,10.93
2024-02-07T23:41:58.145Z,11.07
2024-02-07T23:44:01.009Z,13.73
2024-02-07T23:46:03.836Z,10.07
2024-02-07T23:48:07.887Z,10.57
2024-02-07T23:50:10.842Z,10.43
2024-02-07T23:52:13.723Z,8.93
2024-02-07T23:54:16.536Z,10.48
2024-02-07T23:56:20.631Z,16.45
2024-02-07T23:58:23.340Z,12.90
